createdAt,value
2019-04-30T00:00:38.554Z,971.59
2019-04-30T00:01:38.556Z,971.59
2019-04-30T00:02:40.065Z,971.63
2019-04-30T00:03:38.473Z,971.64
2019-04-30T00:04:47.070Z,971.56
2019-04-30T00:06:47.043Z,971.55
2019-04-30T00:07:39.802Z,971.56
2019-04-30T00:09:49.238Z,971.60
2019-04-30T00:10:41.514Z,971.58
2019-04-30T00:11:41.117Z,971.57
2019-04-30T00:12:41.090Z,971.54
2019-04-30T00:13:41.062Z,971.51
2019-04-30T00:14:41.369Z,971.60
2019-04-30T00:15:41.023Z,971.51
2019-04-30T00:16:40.993Z,971.57
2019-04-30T00:17:40.967Z,971.53
2019-04-30T00:18:55.164Z,971.54
2019-04-30T00:19:40.920Z,971.54
2019-04-30T00:20:40.899Z,971.48
2019-04-30T00:21:40.872Z,971.46
2019-04-30T00:22:47.149Z,971.55
2019-04-30T00:23:40.825Z,971.43
2019-04-30T00:24:46.815Z,971.53
2019-04-30T00:25:40.777Z,971.48
2019-04-30T00:26:46.749Z,971.51
2019-04-30T00:27:40.730Z,971.57
2019-04-30T00:28:44.374Z,971.54
2019-04-30T00:29:40.680Z,971.52
2019-04-30T00:30:43.877Z,971.51
2019-04-30T00:31:40.631Z,971.50
2019-04-30T00:32:43.826Z,971.51
2019-04-30T00:33:40.583Z,971.48
2019-04-30T00:34:40.574Z,971.52
2019-04-30T00:35:40.534Z,971.49
2019-04-30T00:36:40.511Z,971.50
2019-04-30T00:37:40.486Z,971.51
2019-04-30T00:38:40.464Z,971.50
2019-04-30T00:39:44.436Z,971.50
2019-04-30T00:40:40.414Z,971.50
2019-04-30T00:41:45.972Z,971.54
2019-04-30T00:42:40.370Z,971.48
2019-04-30T00:43:46.465Z,971.59
2019-04-30T00:44:40.317Z,971.51
2019-04-30T00:45:44.913Z,971.57
2019-04-30T00:46:40.288Z,971.56
2019-04-30T00:47:44.438Z,971.55
2019-04-30T00:48:40.223Z,971.51
2019-04-30T00:49:40.192Z,971.54
2019-04-30T00:50:40.173Z,971.55
2019-04-30T00:51:40.148Z,971.53
2019-04-30T00:52:40.126Z,971.49
2019-04-30T00:53:43.796Z,971.51
2019-04-30T00:54:40.078Z,971.56
2019-04-30T00:55:44.249Z,971.52
2019-04-30T00:56:40.034Z,971.53
2019-04-30T00:57:43.547Z,971.51
2019-04-30T00:58:39.981Z,971.50
2019-04-30T00:59:44.002Z,971.47
2019-04-30T01:00:39.937Z,971.52
2019-04-30T01:01:43.519Z,971.45
2019-04-30T01:02:39.884Z,971.49
2019-04-30T01:03:46.369Z,971.52
2019-04-30T01:04:39.843Z,971.45
2019-04-30T01:05:43.868Z,971.51
2019-04-30T01:06:39.790Z,971.54
2019-04-30T01:07:47.969Z,971.51
2019-04-30T01:08:39.749Z,971.50
2019-04-30T01:09:43.581Z,971.45
2019-04-30T01:10:39.697Z,971.47
2019-04-30T01:11:44.007Z,971.44
2019-04-30T01:12:44.922Z,971.51
2019-04-30T01:13:45.553Z,971.46
2019-04-30T01:14:39.594Z,971.51
2019-04-30T01:15:39.578Z,971.46
2019-04-30T01:16:39.544Z,971.47
2019-04-30T01:17:40.884Z,971.44
2019-04-30T01:18:39.505Z,971.45
2019-04-30T01:19:39.654Z,971.46
2019-04-30T01:20:40.719Z,971.51
2019-04-30T01:21:40.229Z,971.50
2019-04-30T01:22:39.409Z,971.50
2019-04-30T01:23:43.186Z,971.47
2019-04-30T01:24:39.363Z,971.46
2019-04-30T01:25:43.210Z,971.48
2019-04-30T01:26:39.401Z,971.48
2019-04-30T01:27:45.468Z,971.44
2019-04-30T01:28:39.271Z,971.46
2019-04-30T01:29:44.165Z,971.44
2019-04-30T01:30:39.439Z,971.45
2019-04-30T01:31:40.835Z,971.47
2019-04-30T01:32:39.505Z,971.48
2019-04-30T01:33:39.172Z,971.44
2019-04-30T01:34:39.556Z,971.44
2019-04-30T01:35:40.590Z,971.42
2019-04-30T01:36:39.320Z,971.44
2019-04-30T01:37:39.050Z,971.44
2019-04-30T01:38:40.360Z,971.44
2019-04-30T01:39:39.181Z,971.38
2019-04-30T01:40:42.802Z,971.42
2019-04-30T01:41:40.237Z,971.42
2019-04-30T01:42:41.122Z,971.45
2019-04-30T01:43:38.910Z,971.41
2019-04-30T01:44:39.232Z,971.40
2019-04-30T01:45:38.857Z,971.39
2019-04-30T01:46:39.118Z,971.34
2019-04-30T01:47:39.703Z,971.39
2019-04-30T01:48:39.323Z,971.35
2019-04-30T01:49:42.653Z,971.34
2019-04-30T01:50:42.058Z,971.31
2019-04-30T01:51:38.788Z,971.28
2019-04-30T01:52:38.835Z,971.30
2019-04-30T01:53:38.872Z,971.26
2019-04-30T01:54:39.150Z,971.33
2019-04-30T01:55:38.973Z,971.31
2019-04-30T01:56:38.996Z,971.30
2019-04-30T01:57:39.035Z,971.26
2019-04-30T01:58:39.358Z,971.24
2019-04-30T01:59:38.830Z,971.32
2019-04-30T02:00:39.153Z,971.37
2019-04-30T02:01:39.047Z,971.33
2019-04-30T02:02:39.431Z,971.33
2019-04-30T02:03:40.038Z,971.38
2019-04-30T02:04:39.327Z,971.37
2019-04-30T02:05:38.621Z,971.35
2019-04-30T02:06:39.156Z,971.43
2019-04-30T02:07:38.845Z,971.42
2019-04-30T02:08:39.312Z,971.39
2019-04-30T02:09:38.860Z,971.40
2019-04-30T02:10:38.262Z,971.40
2019-04-30T02:11:38.865Z,971.41
2019-04-30T02:12:39.277Z,971.37
2019-04-30T02:13:39.220Z,971.35
2019-04-30T02:14:39.484Z,971.31
2019-04-30T02:15:39.036Z,971.35
2019-04-30T02:16:39.585Z,971.35
2019-04-30T02:17:38.870Z,971.31
2019-04-30T02:18:39.411Z,971.31
2019-04-30T02:19:39.085Z,971.30
2019-04-30T02:20:38.451Z,971.33
2019-04-30T02:21:38.575Z,971.25
2019-04-30T02:22:38.959Z,971.28
2019-04-30T02:23:39.245Z,971.26
2019-04-30T02:24:38.674Z,971.24
2019-04-30T02:25:39.805Z,971.22
2019-04-30T02:26:38.477Z,971.21
2019-04-30T02:27:39.061Z,971.21
2019-04-30T02:28:39.372Z,971.20
2019-04-30T02:29:39.685Z,971.19
2019-04-30T02:30:40.326Z,971.18
2019-04-30T02:31:40.595Z,971.13
2019-04-30T02:32:39.496Z,971.22
2019-04-30T02:33:40.383Z,971.13
2019-04-30T02:34:41.133Z,971.16
2019-04-30T02:35:40.486Z,971.18
2019-04-30T02:36:40.368Z,971.14
2019-04-30T02:37:40.382Z,971.13
2019-04-30T02:38:39.643Z,971.14
2019-04-30T02:39:40.128Z,971.14
2019-04-30T02:40:39.329Z,971.12
2019-04-30T02:41:40.847Z,971.12
2019-04-30T02:42:39.746Z,971.14
2019-04-30T02:43:39.744Z,971.08
2019-04-30T02:44:37.421Z,971.09
2019-04-30T02:45:39.951Z,971.09
2019-04-30T02:46:40.196Z,971.13
2019-04-30T02:47:39.810Z,971.14
2019-04-30T02:48:39.724Z,971.08
2019-04-30T02:49:39.746Z,971.09
2019-04-30T02:50:39.312Z,971.10
2019-04-30T02:51:39.779Z,971.10
2019-04-30T02:52:37.226Z,971.04
2019-04-30T02:53:37.193Z,971.08
2019-04-30T02:54:39.463Z,971.08
2019-04-30T02:55:37.162Z,971.10
2019-04-30T02:56:39.808Z,971.09
2019-04-30T02:57:39.482Z,971.08
2019-04-30T02:58:37.082Z,971.08
2019-04-30T02:59:40.136Z,971.11
2019-04-30T03:00:39.347Z,971.12
2019-04-30T03:01:37.011Z,971.10
2019-04-30T03:02:39.175Z,971.10
2019-04-30T03:03:39.688Z,971.10
2019-04-30T03:04:39.388Z,971.12
2019-04-30T03:05:39.119Z,971.14
2019-04-30T03:06:36.882Z,971.09
2019-04-30T03:07:36.855Z,971.08
2019-04-30T03:08:36.827Z,971.11
2019-04-30T03:09:39.327Z,971.12
2019-04-30T03:10:36.775Z,971.11
2019-04-30T03:11:36.759Z,971.06
2019-04-30T03:12:36.728Z,971.06
2019-04-30T03:13:40.057Z,971.07
2019-04-30T03:14:36.679Z,971.01
2019-04-30T03:15:39.236Z,971.02
2019-04-30T03:16:36.620Z,971.02
2019-04-30T03:17:39.336Z,971.01
2019-04-30T03:18:36.576Z,971.00
2019-04-30T03:19:36.557Z,970.95
2019-04-30T03:20:36.847Z,970.94
2019-04-30T03:21:36.501Z,970.94
2019-04-30T03:22:36.475Z,970.97
2019-04-30T03:23:38.979Z,970.97
2019-04-30T03:24:36.420Z,970.98
2019-04-30T03:25:36.405Z,971.00
2019-04-30T03:26:36.376Z,970.98
2019-04-30T03:27:36.349Z,970.98
2019-04-30T03:28:36.325Z,970.98
2019-04-30T03:29:36.294Z,971.00
2019-04-30T03:30:36.324Z,970.96
2019-04-30T03:31:36.260Z,970.95
2019-04-30T03:32:36.773Z,970.94
2019-04-30T03:33:36.213Z,970.98
2019-04-30T03:34:36.186Z,971.00
2019-04-30T03:35:36.148Z,970.93
2019-04-30T03:36:36.118Z,970.95
2019-04-30T03:37:36.097Z,970.93
2019-04-30T03:38:36.076Z,970.93
2019-04-30T03:39:36.048Z,970.95
2019-04-30T03:40:36.020Z,970.92
2019-04-30T03:41:35.994Z,970.89
2019-04-30T03:42:35.964Z,970.92
2019-04-30T03:43:35.959Z,970.94
2019-04-30T03:44:35.918Z,970.97
2019-04-30T03:45:35.891Z,970.94
2019-04-30T03:46:35.879Z,970.92
2019-04-30T03:47:43.360Z,970.93
2019-04-30T03:49:30.966Z,970.89
2019-04-30T03:50:48.122Z,970.91
2019-04-30T03:52:24.766Z,970.89
2019-04-30T03:53:31.906Z,970.85
2019-04-30T03:55:25.128Z,970.83
2019-04-30T03:56:24.762Z,970.86
2019-04-30T03:58:21.187Z,970.88
2019-04-30T03:59:10.985Z,970.84
2019-04-30T04:01:03.320Z,970.83
2019-04-30T04:02:03.295Z,970.87
2019-04-30T04:03:56.179Z,970.87
2019-04-30T04:04:56.121Z,970.88
2019-04-30T04:06:50.031Z,970.87
2019-04-30T04:07:53.106Z,970.90
2019-04-30T04:09:51.573Z,970.95
2019-04-30T04:10:44.348Z,970.94
2019-04-30T04:12:39.384Z,970.98
2019-04-30T04:13:39.906Z,971.00
2019-04-30T04:15:30.074Z,971.10
2019-04-30T04:16:32.265Z,971.10
2019-04-30T04:18:25.450Z,971.11
2019-04-30T04:19:25.389Z,971.11
2019-04-30T04:20:25.377Z,971.13
2019-04-30T04:21:25.858Z,971.13
2019-04-30T04:22:25.335Z,971.11
2019-04-30T04:23:25.312Z,971.11
2019-04-30T04:24:25.290Z,971.12
2019-04-30T04:25:25.281Z,971.15
2019-04-30T04:26:25.230Z,971.15
2019-04-30T04:27:25.269Z,971.15
2019-04-30T04:28:25.205Z,971.14
2019-04-30T04:29:25.162Z,971.09
2019-04-30T04:30:25.140Z,971.10
2019-04-30T04:31:33.736Z,971.08
2019-04-30T04:33:19.942Z,971.10
2019-04-30T04:34:19.777Z,971.08
2019-04-30T04:36:10.818Z,971.10
2019-04-30T04:37:10.785Z,971.09
2019-04-30T04:39:03.683Z,971.09
2019-04-30T04:40:03.623Z,971.12
2019-04-30T04:42:00.044Z,971.14
2019-04-30T04:43:00.066Z,971.15
2019-04-30T04:44:51.441Z,971.21
2019-04-30T04:45:51.390Z,971.21
2019-04-30T04:47:44.304Z,971.27
2019-04-30T04:48:44.241Z,971.29
2019-04-30T04:50:39.798Z,971.26
2019-04-30T04:51:41.116Z,971.28
2019-04-30T04:53:33.000Z,971.32
2019-04-30T04:54:32.984Z,971.27
2019-04-30T04:55:32.944Z,971.32
2019-04-30T04:56:32.926Z,971.33
2019-04-30T04:57:32.897Z,971.34
2019-04-30T04:58:32.909Z,971.28
2019-04-30T04:59:32.833Z,971.25
2019-04-30T05:00:32.824Z,971.33
2019-04-30T05:01:32.822Z,971.33
2019-04-30T05:02:33.001Z,971.33
2019-04-30T05:03:32.754Z,971.38
2019-04-30T05:04:32.729Z,971.41
2019-04-30T05:05:32.684Z,971.39
2019-04-30T05:06:32.679Z,971.40
2019-04-30T05:07:32.671Z,971.39
2019-04-30T05:08:32.664Z,971.43
2019-04-30T05:09:32.667Z,971.45
2019-04-30T05:10:32.580Z,971.45
2019-04-30T05:11:32.580Z,971.42
2019-04-30T05:12:32.519Z,971.42
2019-04-30T05:13:34.648Z,971.44
2019-04-30T05:14:32.497Z,971.42
2019-04-30T05:15:32.445Z,971.42
2019-04-30T05:16:32.409Z,971.48
2019-04-30T05:17:32.406Z,971.44
2019-04-30T05:18:32.414Z,971.44
2019-04-30T05:19:32.364Z,971.47
2019-04-30T05:20:32.354Z,971.45
2019-04-30T05:21:42.053Z,971.43
2019-04-30T05:22:32.280Z,971.41
2019-04-30T05:23:32.276Z,971.48
2019-04-30T05:24:32.229Z,971.41
2019-04-30T05:25:32.206Z,971.40
2019-04-30T05:26:32.178Z,971.34
2019-04-30T05:27:32.199Z,971.46
2019-04-30T05:28:32.155Z,971.46
2019-04-30T05:29:32.154Z,971.40
2019-04-30T05:30:32.097Z,971.43
2019-04-30T05:31:32.075Z,971.43
2019-04-30T05:32:32.075Z,971.43
2019-04-30T05:33:32.016Z,971.45
2019-04-30T05:34:32.005Z,971.48
2019-04-30T05:35:31.983Z,971.42
2019-04-30T05:36:31.960Z,971.46
2019-04-30T05:37:31.940Z,971.53
2019-04-30T05:38:31.943Z,971.53
2019-04-30T05:39:31.898Z,971.52
2019-04-30T05:40:31.880Z,971.48
2019-04-30T05:41:31.867Z,971.49
2019-04-30T05:42:31.839Z,971.48
2019-04-30T05:43:31.807Z,971.51
2019-04-30T05:44:31.813Z,971.49
2019-04-30T05:45:33.703Z,971.52
2019-04-30T05:46:31.797Z,971.50
2019-04-30T05:47:31.731Z,971.49
2019-04-30T05:48:31.723Z,971.53
2019-04-30T05:49:31.713Z,971.52
2019-04-30T05:50:31.670Z,971.53
2019-04-30T05:51:31.646Z,971.52
2019-04-30T05:52:31.645Z,971.53
2019-04-30T05:53:31.612Z,971.53
2019-04-30T05:54:31.597Z,971.54
2019-04-30T05:55:31.569Z,971.52
2019-04-30T05:56:31.552Z,971.55
2019-04-30T05:57:31.542Z,971.54
2019-04-30T05:58:31.575Z,971.60
2019-04-30T05:59:31.491Z,971.58
2019-04-30T06:00:31.520Z,971.59
2019-04-30T06:01:31.451Z,971.56
2019-04-30T06:02:34.081Z,971.57
2019-04-30T06:03:33.345Z,971.56
2019-04-30T06:04:31.388Z,971.56
2019-04-30T06:05:31.391Z,971.55
2019-04-30T06:06:33.564Z,971.57
2019-04-30T06:07:31.351Z,971.57
2019-04-30T06:08:31.337Z,971.59
2019-04-30T06:09:33.957Z,971.59
2019-04-30T06:10:31.300Z,971.55
2019-04-30T06:11:31.260Z,971.63
2019-04-30T06:12:31.260Z,971.62
2019-04-30T06:13:32.040Z,971.61
2019-04-30T06:14:31.221Z,971.67
2019-04-30T06:15:31.218Z,971.68
2019-04-30T06:16:31.188Z,971.58
2019-04-30T06:17:31.163Z,971.59
2019-04-30T06:18:31.161Z,971.59
2019-04-30T06:19:31.120Z,971.59
2019-04-30T06:20:31.108Z,971.54
2019-04-30T06:21:31.084Z,971.59
2019-04-30T06:22:31.131Z,971.56
2019-04-30T06:23:31.049Z,971.56
2019-04-30T06:24:31.048Z,971.54
2019-04-30T06:25:41.302Z,971.54
2019-04-30T06:26:31.020Z,971.56
2019-04-30T06:27:30.994Z,971.58
2019-04-30T06:28:30.972Z,971.57
2019-04-30T06:29:30.976Z,971.59
2019-04-30T06:30:30.968Z,971.54
2019-04-30T06:31:34.263Z,971.57
2019-04-30T06:32:30.930Z,971.63
2019-04-30T06:33:30.904Z,971.61
2019-04-30T06:34:30.928Z,971.53
2019-04-30T06:35:30.889Z,971.57
2019-04-30T06:36:30.860Z,971.56
2019-04-30T06:37:31.599Z,971.60
2019-04-30T06:38:30.815Z,971.61
2019-04-30T06:39:30.835Z,971.62
2019-04-30T06:40:30.813Z,971.63
2019-04-30T06:41:30.846Z,971.64
2019-04-30T06:42:30.787Z,971.68
2019-04-30T06:43:30.754Z,971.64
2019-04-30T06:44:37.356Z,971.67
2019-04-30T06:45:30.758Z,971.67
2019-04-30T06:46:30.719Z,971.67
2019-04-30T06:47:33.161Z,971.63
2019-04-30T06:48:30.690Z,971.65
2019-04-30T06:49:30.687Z,971.61
2019-04-30T06:50:30.667Z,971.64
2019-04-30T06:51:30.877Z,971.64
2019-04-30T06:52:30.633Z,971.61
2019-04-30T06:53:30.590Z,971.64
2019-04-30T06:54:30.618Z,971.65
2019-04-30T06:55:30.998Z,971.62
2019-04-30T06:56:30.573Z,971.62
2019-04-30T06:57:30.600Z,971.62
2019-04-30T06:58:30.593Z,971.67
2019-04-30T06:59:30.533Z,971.70
2019-04-30T07:00:33.619Z,971.68
2019-04-30T07:01:30.490Z,971.65
2019-04-30T07:02:30.895Z,971.64
2019-04-30T07:03:30.463Z,971.62
2019-04-30T07:04:30.508Z,971.66
2019-04-30T07:05:30.449Z,971.61
2019-04-30T07:06:32.653Z,971.63
2019-04-30T07:07:38.466Z,971.65
2019-04-30T07:08:38.858Z,971.60
2019-04-30T07:09:33.555Z,971.58
2019-04-30T07:10:30.399Z,971.62
2019-04-30T07:11:30.360Z,971.62
2019-04-30T07:12:30.925Z,971.57
2019-04-30T07:13:30.329Z,971.58
2019-04-30T07:14:30.327Z,971.60
2019-04-30T07:15:30.306Z,971.60
2019-04-30T07:16:30.302Z,971.66
2019-04-30T07:17:30.277Z,971.61
2019-04-30T07:18:30.285Z,971.71
2019-04-30T07:19:38.261Z,971.63
2019-04-30T07:20:33.937Z,971.66
2019-04-30T07:21:31.714Z,971.78
2019-04-30T07:22:40.086Z,971.71
2019-04-30T07:23:30.204Z,971.73
2019-04-30T07:24:30.179Z,971.71
2019-04-30T07:25:30.206Z,971.70
2019-04-30T07:26:30.183Z,971.68
2019-04-30T07:27:32.360Z,971.71
2019-04-30T07:28:43.256Z,971.78
2019-04-30T07:29:30.124Z,971.79
2019-04-30T07:30:30.905Z,971.77
2019-04-30T07:31:30.129Z,971.83
2019-04-30T07:32:30.087Z,971.82
2019-04-30T07:33:30.068Z,971.96
2019-04-30T07:34:36.557Z,972.03
2019-04-30T07:35:30.054Z,972.07
2019-04-30T07:36:46.880Z,972.19
2019-04-30T07:38:35.618Z,972.31
2019-04-30T07:39:33.351Z,972.34
2019-04-30T07:41:16.296Z,972.36
2019-04-30T07:42:23.445Z,972.29
2019-04-30T07:44:30.007Z,972.28
2019-04-30T07:45:16.315Z,972.22
2019-04-30T07:47:09.735Z,972.26
2019-04-30T07:48:09.458Z,972.28
2019-04-30T07:49:55.960Z,972.22
2019-04-30T07:50:54.904Z,972.19
2019-04-30T07:53:01.797Z,972.19
2019-04-30T07:53:49.638Z,972.22
2019-04-30T07:55:40.687Z,972.11
2019-04-30T07:56:41.714Z,972.14
2019-04-30T07:57:40.710Z,972.20
2019-04-30T07:58:40.626Z,972.13
2019-04-30T07:59:40.614Z,972.15
2019-04-30T08:00:40.599Z,972.10
2019-04-30T08:02:00.614Z,972.09
2019-04-30T08:02:43.561Z,972.11
2019-04-30T08:03:40.938Z,972.13
2019-04-30T08:04:40.876Z,972.10
2019-04-30T08:05:40.551Z,972.13
2019-04-30T08:06:40.726Z,972.11
2019-04-30T08:07:40.558Z,972.09
2019-04-30T08:08:41.125Z,972.13
2019-04-30T08:09:42.335Z,972.16
2019-04-30T08:10:40.488Z,972.16
2019-04-30T08:11:43.423Z,972.17
2019-04-30T08:12:43.103Z,972.21
2019-04-30T08:13:41.425Z,972.32
2019-04-30T08:14:40.441Z,972.32
2019-04-30T08:15:42.292Z,972.34
2019-04-30T08:16:40.418Z,972.32
2019-04-30T08:17:40.410Z,972.36
2019-04-30T08:18:40.396Z,972.36
2019-04-30T08:19:41.099Z,972.39
2019-04-30T08:20:40.375Z,972.38
2019-04-30T08:21:40.362Z,972.51
2019-04-30T08:22:41.156Z,972.37
2019-04-30T08:23:40.341Z,972.42
2019-04-30T08:24:40.331Z,972.46
2019-04-30T08:25:40.319Z,972.47
2019-04-30T08:26:40.310Z,972.48
2019-04-30T08:27:40.297Z,972.41
2019-04-30T08:28:40.288Z,972.43
2019-04-30T08:29:40.276Z,972.40
2019-04-30T08:30:40.265Z,972.41
2019-04-30T08:31:40.933Z,972.41
2019-04-30T08:32:40.238Z,972.47
2019-04-30T08:33:40.340Z,972.38
2019-04-30T08:34:40.220Z,972.45
2019-04-30T08:35:40.214Z,972.46
2019-04-30T08:36:40.197Z,972.47
2019-04-30T08:37:40.203Z,972.47
2019-04-30T08:38:40.176Z,972.51
2019-04-30T08:39:40.175Z,972.45
2019-04-30T08:40:53.115Z,972.52
2019-04-30T08:41:40.143Z,972.46
2019-04-30T08:42:40.437Z,972.51
2019-04-30T08:43:40.122Z,972.44
2019-04-30T08:44:40.113Z,972.48
2019-04-30T08:45:40.108Z,972.50
2019-04-30T08:46:40.093Z,972.50
2019-04-30T08:47:40.080Z,972.55
2019-04-30T08:48:50.271Z,972.54
2019-04-30T08:49:40.759Z,972.50
2019-04-30T08:50:40.169Z,972.61
2019-04-30T08:51:40.552Z,972.62
2019-04-30T08:52:40.034Z,972.62
2019-04-30T08:53:41.095Z,972.66
2019-04-30T08:54:40.005Z,972.64
2019-04-30T08:55:39.996Z,972.65
2019-04-30T08:56:39.986Z,972.71
2019-04-30T08:57:39.978Z,972.75
2019-04-30T08:58:39.963Z,972.73
2019-04-30T08:59:39.958Z,972.81
2019-04-30T09:00:39.941Z,972.93
2019-04-30T09:01:39.935Z,972.94
2019-04-30T09:02:39.922Z,972.94
2019-04-30T09:03:39.910Z,972.86
2019-04-30T09:04:39.901Z,973.03
2019-04-30T09:05:39.892Z,972.98
2019-04-30T09:06:40.135Z,973.02
2019-04-30T09:07:39.876Z,973.01
2019-04-30T09:08:40.181Z,973.19
2019-04-30T09:09:39.851Z,973.29
2019-04-30T09:10:39.839Z,973.39
2019-04-30T09:11:51.723Z,973.37
2019-04-30T09:12:39.981Z,973.38
2019-04-30T09:13:39.818Z,973.49
2019-04-30T09:14:40.671Z,973.52
2019-04-30T09:15:40.147Z,973.77
2019-04-30T09:16:39.794Z,973.69
2019-04-30T09:17:39.769Z,973.90
2019-04-30T09:18:39.770Z,974.01
2019-04-30T09:19:39.752Z,974.02
2019-04-30T09:20:40.951Z,973.95
2019-04-30T09:21:40.212Z,973.88
2019-04-30T09:22:39.721Z,974.04
2019-04-30T09:23:47.534Z,974.10
2019-04-30T09:24:39.702Z,974.35
2019-04-30T09:25:39.721Z,974.36
2019-04-30T09:26:39.682Z,974.38
2019-04-30T09:27:39.817Z,974.41
2019-04-30T09:28:41.073Z,974.53
2019-04-30T09:29:39.653Z,974.51
2019-04-30T09:30:39.664Z,974.47
2019-04-30T09:31:41.045Z,974.04
2019-04-30T09:32:39.628Z,973.85
2019-04-30T09:33:39.618Z,973.85
2019-04-30T09:34:40.379Z,974.13
2019-04-30T09:35:39.616Z,974.16
2019-04-30T09:36:39.586Z,973.94
2019-04-30T09:37:41.711Z,973.81
2019-04-30T09:38:39.567Z,973.75
2019-04-30T09:39:39.562Z,973.60
2019-04-30T09:40:41.638Z,973.46
2019-04-30T09:41:41.149Z,973.24
2019-04-30T09:42:39.529Z,973.15
2019-04-30T09:43:40.497Z,973.09
2019-04-30T09:44:39.511Z,972.99
2019-04-30T09:45:39.501Z,972.83
2019-04-30T09:46:39.490Z,972.85
2019-04-30T09:47:41.924Z,972.83
2019-04-30T09:48:39.475Z,972.79
2019-04-30T09:49:41.481Z,972.71
2019-04-30T09:50:39.601Z,972.62
2019-04-30T09:51:40.061Z,972.53
2019-04-30T09:52:39.954Z,972.54
2019-04-30T09:53:39.918Z,972.53
2019-04-30T09:54:40.071Z,972.44
2019-04-30T09:55:40.575Z,972.35
2019-04-30T09:56:39.412Z,972.36
2019-04-30T09:57:39.390Z,972.35
2019-04-30T09:58:39.428Z,972.30
2019-04-30T09:59:39.375Z,972.29
2019-04-30T10:00:39.371Z,972.26
2019-04-30T10:01:39.350Z,972.26
2019-04-30T10:02:39.343Z,972.26
2019-04-30T10:03:40.104Z,972.19
2019-04-30T10:04:39.967Z,972.21
2019-04-30T10:05:39.311Z,972.25
2019-04-30T10:06:40.364Z,972.22
2019-04-30T10:07:39.466Z,972.15
2019-04-30T10:08:47.846Z,972.10
2019-04-30T10:09:39.280Z,972.08
2019-04-30T10:10:39.267Z,972.04
2019-04-30T10:11:39.261Z,971.96
2019-04-30T10:12:39.293Z,971.98
2019-04-30T10:13:39.247Z,972.00
2019-04-30T10:14:40.955Z,972.06
2019-04-30T10:15:39.222Z,972.06
2019-04-30T10:16:39.637Z,972.00
2019-04-30T10:17:39.205Z,972.03
2019-04-30T10:18:39.194Z,972.07
2019-04-30T10:19:39.380Z,971.93
2019-04-30T10:20:39.175Z,971.95
2019-04-30T10:21:39.166Z,971.98
2019-04-30T10:22:40.086Z,972.00
2019-04-30T10:23:39.241Z,972.03
2019-04-30T10:24:39.365Z,972.01
2019-04-30T10:25:39.126Z,971.99
2019-04-30T10:26:39.119Z,971.93
2019-04-30T10:27:39.130Z,971.93
2019-04-30T10:28:39.098Z,972.00
2019-04-30T10:29:41.122Z,971.98
2019-04-30T10:30:39.083Z,971.98
2019-04-30T10:31:39.123Z,972.12
2019-04-30T10:32:39.063Z,972.00
2019-04-30T10:33:39.059Z,972.05
2019-04-30T10:34:39.050Z,971.96
2019-04-30T10:35:39.041Z,972.07
2019-04-30T10:36:41.508Z,971.99
2019-04-30T10:37:39.020Z,972.00
2019-04-30T10:38:39.425Z,972.06
2019-04-30T10:39:39.169Z,971.97
2019-04-30T10:40:39.227Z,972.00
2019-04-30T10:41:39.510Z,971.91
2019-04-30T10:42:39.304Z,971.93
2019-04-30T10:43:39.325Z,971.89
2019-04-30T10:44:38.962Z,971.95
2019-04-30T10:45:39.084Z,971.87
2019-04-30T10:46:38.936Z,971.95
2019-04-30T10:47:39.416Z,971.96
2019-04-30T10:48:38.916Z,971.86
2019-04-30T10:49:39.078Z,971.89
2019-04-30T10:50:40.800Z,971.99
2019-04-30T10:51:38.960Z,971.94
2019-04-30T10:52:39.304Z,971.86
2019-04-30T10:53:38.873Z,971.93
2019-04-30T10:54:39.013Z,971.92
2019-04-30T10:55:38.915Z,971.92
2019-04-30T10:56:38.843Z,971.94
2019-04-30T10:57:39.697Z,971.90
2019-04-30T10:58:38.827Z,971.86
2019-04-30T10:59:38.812Z,971.87
2019-04-30T11:00:39.064Z,971.89
2019-04-30T11:01:39.222Z,971.86
2019-04-30T11:02:46.968Z,971.86
2019-04-30T11:04:39.924Z,971.89
2019-04-30T11:05:41.291Z,971.86
2019-04-30T11:07:28.830Z,971.93
2019-04-30T11:08:39.262Z,971.93
2019-04-30T11:10:20.537Z,971.95
2019-04-30T11:11:20.530Z,971.90
2019-04-30T11:13:15.179Z,971.90
2019-04-30T11:14:15.117Z,971.91
2019-04-30T11:16:13.233Z,971.78
2019-04-30T11:17:10.039Z,971.78
2019-04-30T11:19:02.706Z,971.71
2019-04-30T11:20:02.601Z,971.75
2019-04-30T11:21:55.605Z,971.69
2019-04-30T11:22:55.548Z,971.71
2019-04-30T11:23:55.547Z,971.71
2019-04-30T11:25:01.628Z,971.71
2019-04-30T11:25:56.066Z,971.70
2019-04-30T11:26:55.732Z,971.66
2019-04-30T11:27:55.735Z,971.58
2019-04-30T11:28:55.486Z,971.69
2019-04-30T11:30:01.436Z,971.60
2019-04-30T11:30:55.497Z,971.60
2019-04-30T11:31:55.518Z,971.60
2019-04-30T11:32:55.507Z,971.56
2019-04-30T11:33:55.303Z,971.56
2019-04-30T11:34:55.292Z,971.55
2019-04-30T11:36:02.454Z,971.54
2019-04-30T11:36:55.268Z,971.54
2019-04-30T11:37:55.261Z,971.53
2019-04-30T11:38:55.255Z,971.43
2019-04-30T11:39:55.249Z,971.50
2019-04-30T11:40:55.244Z,971.48
2019-04-30T11:41:55.225Z,971.47
2019-04-30T11:42:55.220Z,971.54
2019-04-30T11:43:55.211Z,971.51
2019-04-30T11:44:55.207Z,971.42
2019-04-30T11:45:55.197Z,971.40
2019-04-30T11:46:55.182Z,971.42
2019-04-30T11:47:55.179Z,971.39
2019-04-30T11:48:55.177Z,971.38
2019-04-30T11:49:55.158Z,971.42
2019-04-30T11:50:55.160Z,971.36
2019-04-30T11:51:55.149Z,971.44
2019-04-30T11:53:09.661Z,971.40
2019-04-30T11:53:55.133Z,971.48
2019-04-30T11:54:55.123Z,971.36
2019-04-30T11:55:55.112Z,971.38
2019-04-30T11:56:55.107Z,971.33
2019-04-30T11:57:55.094Z,971.42
2019-04-30T11:58:55.090Z,971.31
2019-04-30T11:59:55.085Z,971.25
2019-04-30T12:00:55.070Z,971.29
2019-04-30T12:01:55.064Z,971.37
2019-04-30T12:02:55.055Z,971.38
2019-04-30T12:03:55.072Z,971.43
2019-04-30T12:04:55.038Z,971.21
2019-04-30T12:05:55.034Z,971.37
2019-04-30T12:06:55.026Z,971.26
2019-04-30T12:07:55.018Z,971.29
2019-04-30T12:08:55.029Z,971.24
2019-04-30T12:09:55.001Z,971.25
2019-04-30T12:10:54.990Z,971.23
2019-04-30T12:11:54.985Z,971.27
2019-04-30T12:12:54.974Z,971.20
2019-04-30T12:13:54.965Z,971.20
2019-04-30T12:14:54.961Z,971.30
2019-04-30T12:15:54.941Z,971.25
2019-04-30T12:16:54.940Z,971.26
2019-04-30T12:17:54.933Z,971.33
2019-04-30T12:18:54.926Z,971.33
2019-04-30T12:19:54.926Z,971.26
2019-04-30T12:20:54.904Z,971.28
2019-04-30T12:21:54.894Z,971.15
2019-04-30T12:22:54.883Z,971.13
2019-04-30T12:23:54.889Z,971.24
2019-04-30T12:25:02.504Z,971.25
2019-04-30T12:25:54.860Z,971.06
2019-04-30T12:26:54.850Z,971.26
2019-04-30T12:27:54.845Z,971.17
2019-04-30T12:28:54.837Z,971.22
2019-04-30T12:29:54.823Z,971.24
2019-04-30T12:30:54.810Z,971.21
2019-04-30T12:31:54.803Z,971.14
2019-04-30T12:32:54.796Z,971.18
2019-04-30T12:33:54.781Z,971.26
2019-04-30T12:34:54.771Z,971.09
2019-04-30T12:35:54.768Z,971.24
2019-04-30T12:36:54.756Z,971.18
2019-04-30T12:37:54.751Z,971.18
2019-04-30T12:38:54.743Z,971.15
2019-04-30T12:39:54.766Z,971.15
2019-04-30T12:40:54.727Z,971.17
2019-04-30T12:41:54.715Z,971.18
2019-04-30T12:42:54.707Z,971.13
2019-04-30T12:43:54.698Z,971.14
2019-04-30T12:44:54.723Z,971.11
2019-04-30T12:46:02.545Z,971.08
2019-04-30T12:46:54.671Z,971.18
2019-04-30T12:47:54.666Z,971.13
2019-04-30T12:48:54.660Z,971.18
2019-04-30T12:49:54.649Z,971.07
2019-04-30T12:50:54.631Z,971.09
2019-04-30T12:51:54.661Z,971.10
2019-04-30T12:52:54.618Z,971.06
2019-04-30T12:53:54.628Z,971.13
2019-04-30T12:54:54.601Z,971.07
2019-04-30T12:55:55.454Z,971.07
2019-04-30T12:56:54.589Z,971.03
2019-04-30T12:57:58.634Z,971.03
2019-04-30T12:58:54.570Z,971.00
2019-04-30T12:59:54.558Z,970.96